Terminal Aerodrome Forecast
Issued by NWS

Home | Current Version | Previous Version | Text Only | Print | Product List | Glossary On
Versions: 1 2 3 4 5 6 7 8 9 10 11 12 13 14 15 16 17 18
238
FTUS46 KHNX 141126
TAFVIS
TAF
KVIS 141126Z 1412/1512 VRB04KT 1/4SM FG OVC002
      TEMPO 1415/1418 1SM BR BKN004
     FM141800 VRB03KT 2SM BR SCT200
     FM142000 VRB04KT 4SM HZ SCT200
     FM150600 VRB03KT 2SM BR SKC
      TEMPO 1508/1512 1/2SM FG VV002=

USA.gov is the U.S. government's official web portal to all federal, state and local government web resources and services.